sensor_id;sensor_type;location;lat;lon;timestamp;temperature;humidity
20650;DHT22;10484;48.736;9.332;2023-02-11T00:02:02;-0.50;1.00
20650;DHT22;10484;48.736;9.332;2023-02-11T00:04:30;-0.50;1.00
20650;DHT22;10484;48.736;9.332;2023-02-11T00:06:55;-0.60;1.00
20650;DHT22;10484;48.736;9.332;2023-02-11T00:09:21;-0.60;1.00
20650;DHT22;10484;48.736;9.332;2023-02-11T00:11:47;-0.70;1.00
20650;DHT22;10484;48.736;9.332;2023-02-11T00:14:12;-0.60;1.00
20650;DHT22;10484;48.736;9.332;2023-02-11T00:16:38;-0.60;1.00
20650;DHT22;10484;48.736;9.332;2023-02-11T00:19:04;-0.60;1.00
20650;DHT22;10484;48.736;9.332;2023-02-11T00:21:31;-0.70;1.00
20650;DHT22;10484;48.736;9.332;2023-02-11T00:23:58;-0.80;1.00
20650;DHT22;10484;48.736;9.332;2023-02-11T00:26:29;-0.80;1.00
20650;DHT22;10484;48.736;9.332;2023-02-11T00:28:55;-0.80;1.00
20650;DHT22;10484;48.736;9.332;2023-02-11T00:31:22;-0.90;1.00
20650;DHT22;10484;48.736;9.332;2023-02-11T00:33:48;-0.90;1.00
20650;DHT22;10484;48.736;9.332;2023-02-11T00:36:18;-0.90;1.00
20650;DHT22;10484;48.736;9.332;2023-02-11T00:38:45;-0.90;1.00
20650;DHT22;10484;48.736;9.332;2023-02-11T00:41:12;-0.90;1.00
20650;DHT22;10484;48.736;9.332;2023-02-11T00:43:39;-1.00;1.00
20650;DHT22;10484;48.736;9.332;2023-02-11T00:46:05;-1.00;1.00
20650;DHT22;10484;48.736;9.332;2023-02-11T00:48:32;-1.10;1.00
20650;DHT22;10484;48.736;9.332;2023-02-11T00:50:57;-1.10;1.00
20650;DHT22;10484;48.736;9.332;2023-02-11T00:53:23;-1.00;1.00
20650;DHT22;10484;48.736;9.332;2023-02-11T00:55:50;-1.00;1.00
20650;DHT22;10484;48.736;9.332;2023-02-11T00:58:16;-1.10;1.00
20650;DHT22;10484;48.736;9.332;2023-02-11T01:00:41;-1.10;1.00
20650;DHT22;10484;48.736;9.332;2023-02-11T01:03:07;-1.10;1.00
20650;DHT22;10484;48.736;9.332;2023-02-11T01:05:33;-1.20;1.00
20650;DHT22;10484;48.736;9.332;2023-02-11T01:07:58;-1.20;1.00
20650;DHT22;10484;48.736;9.332;2023-02-11T01:10:24;-1.20;1.00
20650;DHT22;10484;48.736;9.332;2023-02-11T01:12:50;-1.20;1.00
20650;DHT22;10484;48.736;9.332;2023-02-11T01:15:17;-1.20;1.00
20650;DHT22;10484;48.736;9.332;2023-02-11T01:17:43;-1.30;1.00
20650;DHT22;10484;48.736;9.332;2023-02-11T01:20:15;-1.30;1.00
20650;DHT22;10484;48.736;9.332;2023-02-11T01:22:41;-1.30;1.00
20650;DHT22;10484;48.736;9.332;2023-02-11T01:25:07;-1.30;1.00
20650;DHT22;10484;48.736;9.332;2023-02-11T01:27:33;-1.30;1.00
20650;DHT22;10484;48.736;9.332;2023-02-11T01:29:59;-1.30;1.00
20650;DHT22;10484;48.736;9.332;2023-02-11T01:32:24;-1.30;1.00
20650;DHT22;10484;48.736;9.332;2023-02-11T01:34:50;-1.40;1.00
20650;DHT22;10484;48.736;9.332;2023-02-11T01:37:16;-1.40;1.00
20650;DHT22;10484;48.736;9.332;2023-02-11T01:39:41;-1.40;1.00
20650;DHT22;10484;48.736;9.332;2023-02-11T01:42:14;-1.40;1.00
20650;DHT22;10484;48.736;9.332;2023-02-11T01:44:40;-1.50;1.00
20650;DHT22;10484;48.736;9.332;2023-02-11T01:47:06;-1.50;1.00
20650;DHT22;10484;48.736;9.332;2023-02-11T01:49:35;-1.50;1.00
20650;DHT22;10484;48.736;9.332;2023-02-11T01:54:34;-1.60;1.00
20650;DHT22;10484;48.736;9.332;2023-02-11T01:57:22;-1.60;1.00
20650;DHT22;10484;48.736;9.332;2023-02-11T02:00:12;-1.60;1.00
20650;DHT22;10484;48.736;9.332;2023-02-11T02:05:39;-1.60;1.00
20650;DHT22;10484;48.736;9.332;2023-02-11T02:08:37;-1.70;1.00
20650;DHT22;10484;48.736;9.332;2023-02-11T02:11:05;-1.70;1.00
20650;DHT22;10484;48.736;9.332;2023-02-11T02:13:32;-1.70;1.00
20650;DHT22;10484;48.736;9.332;2023-02-11T02:16:09;-1.70;1.00
20650;DHT22;10484;48.736;9.332;2023-02-11T02:27:44;-1.80;1.00
20650;DHT22;10484;48.736;9.332;2023-02-11T02:30:45;-1.90;1.00
20650;DHT22;10484;48.736;9.332;2023-02-11T02:36:04;-1.90;1.00
20650;DHT22;10484;48.736;9.332;2023-02-11T02:39:02;-1.90;1.00
20650;DHT22;10484;48.736;9.332;2023-02-11T02:41:31;-2.00;1.00
20650;DHT22;10484;48.736;9.332;2023-02-11T02:43:58;-2.00;1.00
20650;DHT22;10484;48.736;9.332;2023-02-11T02:46:27;-2.00;1.00
20650;DHT22;10484;48.736;9.332;2023-02-11T02:48:54;-2.00;1.00
20650;DHT22;10484;48.736;9.332;2023-02-11T03:02:21;-2.00;1.00
20650;DHT22;10484;48.736;9.332;2023-02-11T03:07:37;-2.00;1.00
20650;DHT22;10484;48.736;9.332;2023-02-11T03:12:35;-2.00;1.00
20650;DHT22;10484;48.736;9.332;2023-02-11T03:15:03;-2.00;1.00
20650;DHT22;10484;48.736;9.332;2023-02-11T03:17:32;-2.00;1.00
20650;DHT22;10484;48.736;9.332;2023-02-11T03:20:02;-2.10;1.00
20650;DHT22;10484;48.736;9.332;2023-02-11T03:25:40;-2.10;1.00
20650;DHT22;10484;48.736;9.332;2023-02-11T03:30:52;-2.10;1.00
20650;DHT22;10484;48.736;9.332;2023-02-11T03:33:27;-2.10;1.00
20650;DHT22;10484;48.736;9.332;2023-02-11T03:35:57;-2.10;1.00
20650;DHT22;10484;48.736;9.332;2023-02-11T03:38:28;-2.10;1.00
20650;DHT22;10484;48.736;9.332;2023-02-11T03:40:57;-2.10;1.00
20650;DHT22;10484;48.736;9.332;2023-02-11T03:43:30;-2.10;1.00
20650;DHT22;10484;48.736;9.332;2023-02-11T03:45:57;-2.10;1.00
20650;DHT22;10484;48.736;9.332;2023-02-11T03:48:33;-2.10;1.00
20650;DHT22;10484;48.736;9.332;2023-02-11T03:51:02;-2.10;1.00
20650;DHT22;10484;48.736;9.332;2023-02-11T03:53:30;-2.10;1.00
20650;DHT22;10484;48.736;9.332;2023-02-11T03:55:58;-2.10;1.00
20650;DHT22;10484;48.736;9.332;2023-02-11T03:58:27;-2.00;1.00
20650;DHT22;10484;48.736;9.332;2023-02-11T04:00:52;-2.00;1.00
20650;DHT22;10484;48.736;9.332;2023-02-11T04:03:18;-2.00;1.00
20650;DHT22;10484;48.736;9.332;2023-02-11T04:05:44;-2.00;1.00
20650;DHT22;10484;48.736;9.332;2023-02-11T04:08:09;-2.00;1.00
20650;DHT22;10484;48.736;9.332;2023-02-11T04:10:35;-2.00;1.00
20650;DHT22;10484;48.736;9.332;2023-02-11T04:13:01;-1.90;1.00
20650;DHT22;10484;48.736;9.332;2023-02-11T04:15:27;-1.90;1.00
20650;DHT22;10484;48.736;9.332;2023-02-11T04:17:52;-1.90;1.00
20650;DHT22;10484;48.736;9.332;2023-02-11T04:20:18;-1.90;1.00
20650;DHT22;10484;48.736;9.332;2023-02-11T04:22:44;-1.90;1.00
20650;DHT22;10484;48.736;9.332;2023-02-11T04:25:09;-1.90;1.00
20650;DHT22;10484;48.736;9.332;2023-02-11T04:27:36;-1.90;1.00
20650;DHT22;10484;48.736;9.332;2023-02-11T04:30:03;-1.90;1.00
20650;DHT22;10484;48.736;9.332;2023-02-11T04:32:29;-1.80;1.00
20650;DHT22;10484;48.736;9.332;2023-02-11T04:34:54;-1.80;1.00
20650;DHT22;10484;48.736;9.332;2023-02-11T04:37:20;-1.80;1.00
20650;DHT22;10484;48.736;9.332;2023-02-11T04:39:46;-1.80;1.00
20650;DHT22;10484;48.736;9.332;2023-02-11T04:42:11;-1.80;1.00
20650;DHT22;10484;48.736;9.332;2023-02-11T04:44:37;-1.70;1.00
20650;DHT22;10484;48.736;9.332;2023-02-11T04:47:03;-1.70;1.00
20650;DHT22;10484;48.736;9.332;2023-02-11T04:49:28;-1.70;1.00
20650;DHT22;10484;48.736;9.332;2023-02-11T04:51:54;-1.70;1.00
20650;DHT22;10484;48.736;9.332;2023-02-11T04:54:20;-1.60;1.00
20650;DHT22;10484;48.736;9.332;2023-02-11T04:56:46;-1.60;1.00
20650;DHT22;10484;48.736;9.332;2023-02-11T04:59:12;-1.60;1.00
20650;DHT22;10484;48.736;9.332;2023-02-11T05:01:38;-1.60;1.00
20650;DHT22;10484;48.736;9.332;2023-02-11T05:04:04;-1.50;1.00
20650;DHT22;10484;48.736;9.332;2023-02-11T05:06:30;-1.50;1.00
20650;DHT22;10484;48.736;9.332;2023-02-11T05:08:55;-1.50;1.00
20650;DHT22;10484;48.736;9.332;2023-02-11T05:11:23;-1.50;1.00
20650;DHT22;10484;48.736;9.332;2023-02-11T05:13:49;-1.40;1.00
20650;DHT22;10484;48.736;9.332;2023-02-11T05:16:15;-1.40;1.00
20650;DHT22;10484;48.736;9.332;2023-02-11T05:18:42;-1.40;1.00
20650;DHT22;10484;48.736;9.332;2023-02-11T05:21:13;-1.40;1.00
20650;DHT22;10484;48.736;9.332;2023-02-11T05:23:40;-1.40;1.00
20650;DHT22;10484;48.736;9.332;2023-02-11T05:26:06;-1.40;1.00
20650;DHT22;10484;48.736;9.332;2023-02-11T05:28:32;-1.40;1.00
20650;DHT22;10484;48.736;9.332;2023-02-11T05:30:59;-1.30;1.00
20650;DHT22;10484;48.736;9.332;2023-02-11T05:33:25;-1.30;1.00
20650;DHT22;10484;48.736;9.332;2023-02-11T05:35:51;-1.30;1.00
20650;DHT22;10484;48.736;9.332;2023-02-11T05:38:17;-1.30;1.00
20650;DHT22;10484;48.736;9.332;2023-02-11T05:40:43;-1.30;1.00
20650;DHT22;10484;48.736;9.332;2023-02-11T05:43:08;-1.30;1.00
20650;DHT22;10484;48.736;9.332;2023-02-11T05:45:34;-1.30;1.00
20650;DHT22;10484;48.736;9.332;2023-02-11T05:48:00;-1.30;1.00
20650;DHT22;10484;48.736;9.332;2023-02-11T05:50:25;-1.20;1.00
20650;DHT22;10484;48.736;9.332;2023-02-11T05:52:51;-1.20;1.00
20650;DHT22;10484;48.736;9.332;2023-02-11T05:55:17;-1.20;1.00
20650;DHT22;10484;48.736;9.332;2023-02-11T05:57:42;-1.20;1.00
20650;DHT22;10484;48.736;9.332;2023-02-11T06:00:09;-1.20;1.00
20650;DHT22;10484;48.736;9.332;2023-02-11T06:02:34;-1.20;1.00
20650;DHT22;10484;48.736;9.332;2023-02-11T06:05:00;-1.20;1.00
20650;DHT22;10484;48.736;9.332;2023-02-11T06:07:26;-1.20;1.00
20650;DHT22;10484;48.736;9.332;2023-02-11T06:09:51;-1.20;1.00
20650;DHT22;10484;48.736;9.332;2023-02-11T06:12:17;-1.20;1.00
20650;DHT22;10484;48.736;9.332;2023-02-11T06:14:43;-1.20;1.00
20650;DHT22;10484;48.736;9.332;2023-02-11T06:17:09;-1.20;1.00
20650;DHT22;10484;48.736;9.332;2023-02-11T06:19:35;-1.20;1.00
20650;DHT22;10484;48.736;9.332;2023-02-11T06:22:00;-1.20;1.00
20650;DHT22;10484;48.736;9.332;2023-02-11T06:24:26;-1.20;1.00
20650;DHT22;10484;48.736;9.332;2023-02-11T06:26:52;-1.10;1.00
20650;DHT22;10484;48.736;9.332;2023-02-11T06:29:17;-1.20;1.00
20650;DHT22;10484;48.736;9.332;2023-02-11T06:31:43;-1.20;1.00
20650;DHT22;10484;48.736;9.332;2023-02-11T06:34:09;-1.20;1.00
20650;DHT22;10484;48.736;9.332;2023-02-11T06:36:36;-1.10;1.00
20650;DHT22;10484;48.736;9.332;2023-02-11T06:39:02;-1.10;1.00
20650;DHT22;10484;48.736;9.332;2023-02-11T06:41:28;-1.10;1.00
20650;DHT22;10484;48.736;9.332;2023-02-11T06:43:54;-1.10;1.00
20650;DHT22;10484;48.736;9.332;2023-02-11T06:46:19;-1.10;1.00
20650;DHT22;10484;48.736;9.332;2023-02-11T06:48:45;-1.10;1.00
20650;DHT22;10484;48.736;9.332;2023-02-11T06:51:12;-1.10;1.00
20650;DHT22;10484;48.736;9.332;2023-02-11T06:53:41;-1.10;1.00
20650;DHT22;10484;48.736;9.332;2023-02-11T06:56:10;-1.10;1.00
20650;DHT22;10484;48.736;9.332;2023-02-11T06:58:37;-1.00;1.00
20650;DHT22;10484;48.736;9.332;2023-02-11T07:01:04;-1.10;1.00
20650;DHT22;10484;48.736;9.332;2023-02-11T07:03:32;-1.00;1.00
20650;DHT22;10484;48.736;9.332;2023-02-11T07:05:59;-1.00;1.00
20650;DHT22;10484;48.736;9.332;2023-02-11T07:08:24;-1.00;1.00
20650;DHT22;10484;48.736;9.332;2023-02-11T07:10:50;-1.00;1.00
20650;DHT22;10484;48.736;9.332;2023-02-11T07:13:16;-1.00;1.00
20650;DHT22;10484;48.736;9.332;2023-02-11T07:15:41;-1.00;1.00
20650;DHT22;10484;48.736;9.332;2023-02-11T07:18:07;-1.00;1.00
20650;DHT22;10484;48.736;9.332;2023-02-11T07:20:32;-1.00;1.00
20650;DHT22;10484;48.736;9.332;2023-02-11T07:22:58;-1.00;1.00
20650;DHT22;10484;48.736;9.332;2023-02-11T07:25:24;-1.00;1.00
20650;DHT22;10484;48.736;9.332;2023-02-11T07:27:50;-1.00;1.00
20650;DHT22;10484;48.736;9.332;2023-02-11T07:30:15;-1.00;1.00
20650;DHT22;10484;48.736;9.332;2023-02-11T07:32:41;-1.00;1.00
20650;DHT22;10484;48.736;9.332;2023-02-11T07:35:07;-0.90;1.00
20650;DHT22;10484;48.736;9.332;2023-02-11T07:37:33;-0.90;1.00
20650;DHT22;10484;48.736;9.332;2023-02-11T07:39:59;-0.90;1.00
20650;DHT22;10484;48.736;9.332;2023-02-11T07:42:25;-0.80;1.00
20650;DHT22;10484;48.736;9.332;2023-02-11T07:44:50;-0.80;1.00
20650;DHT22;10484;48.736;9.332;2023-02-11T07:47:16;-0.80;1.00
20650;DHT22;10484;48.736;9.332;2023-02-11T07:49:42;-0.70;1.00
20650;DHT22;10484;48.736;9.332;2023-02-11T07:52:07;-0.70;1.00
20650;DHT22;10484;48.736;9.332;2023-02-11T07:54:33;-0.60;1.00
20650;DHT22;10484;48.736;9.332;2023-02-11T07:56:59;-0.60;1.00
20650;DHT22;10484;48.736;9.332;2023-02-11T07:59:24;-0.50;1.00
20650;DHT22;10484;48.736;9.332;2023-02-11T08:01:51;-0.40;1.00
20650;DHT22;10484;48.736;9.332;2023-02-11T08:04:17;-0.40;1.00
20650;DHT22;10484;48.736;9.332;2023-02-11T08:06:43;-0.40;1.00
20650;DHT22;10484;48.736;9.332;2023-02-11T08:09:13;-0.30;1.00
20650;DHT22;10484;48.736;9.332;2023-02-11T08:11:39;-0.40;1.00
20650;DHT22;10484;48.736;9.332;2023-02-11T08:14:05;-0.40;1.00
20650;DHT22;10484;48.736;9.332;2023-02-11T08:16:33;-0.30;1.00
20650;DHT22;10484;48.736;9.332;2023-02-11T08:19:01;-0.40;1.00
20650;DHT22;10484;48.736;9.332;2023-02-11T08:21:28;-0.30;1.00
20650;DHT22;10484;48.736;9.332;2023-02-11T08:23:54;-0.30;1.00
20650;DHT22;10484;48.736;9.332;2023-02-11T08:26:26;-0.30;1.00
20650;DHT22;10484;48.736;9.332;2023-02-11T08:28:54;-0.30;1.00
20650;DHT22;10484;48.736;9.332;2023-02-11T08:31:21;-0.30;1.00
20650;DHT22;10484;48.736;9.332;2023-02-11T08:33:47;-0.30;1.00
20650;DHT22;10484;48.736;9.332;2023-02-11T08:36:19;-0.20;1.00
20650;DHT22;10484;48.736;9.332;2023-02-11T08:38:46;-0.20;1.00
20650;DHT22;10484;48.736;9.332;2023-02-11T08:41:12;-0.10;1.00
20650;DHT22;10484;48.736;9.332;2023-02-11T08:43:42;-0.10;1.00
20650;DHT22;10484;48.736;9.332;2023-02-11T08:46:13;-0.10;1.00
20650;DHT22;10484;48.736;9.332;2023-02-11T08:48:39;0.00;1.00
20650;DHT22;10484;48.736;9.332;2023-02-11T08:51:11;0.00;1.00
20650;DHT22;10484;48.736;9.332;2023-02-11T08:53:38;0.00;1.00
20650;DHT22;10484;48.736;9.332;2023-02-11T08:56:04;0.10;1.00
20650;DHT22;10484;48.736;9.332;2023-02-11T08:58:31;0.20;1.00
20650;DHT22;10484;48.736;9.332;2023-02-11T09:00:56;0.20;1.00
20650;DHT22;10484;48.736;9.332;2023-02-11T09:03:22;0.40;1.00
20650;DHT22;10484;48.736;9.332;2023-02-11T09:05:49;0.50;1.00
20650;DHT22;10484;48.736;9.332;2023-02-11T09:08:18;0.60;1.00
20650;DHT22;10484;48.736;9.332;2023-02-11T09:10:44;0.80;1.00
20650;DHT22;10484;48.736;9.332;2023-02-11T09:13:10;0.90;1.00
20650;DHT22;10484;48.736;9.332;2023-02-11T09:15:36;1.10;1.00
20650;DHT22;10484;48.736;9.332;2023-02-11T09:18:02;1.20;1.00
20650;DHT22;10484;48.736;9.332;2023-02-11T09:20:28;1.30;1.00
20650;DHT22;10484;48.736;9.332;2023-02-11T09:22:56;1.40;1.00
20650;DHT22;10484;48.736;9.332;2023-02-11T09:25:22;1.50;1.00
20650;DHT22;10484;48.736;9.332;2023-02-11T09:27:48;1.50;1.00
20650;DHT22;10484;48.736;9.332;2023-02-11T09:30:14;1.60;1.00
20650;DHT22;10484;48.736;9.332;2023-02-11T09:32:40;1.70;1.00
20650;DHT22;10484;48.736;9.332;2023-02-11T09:35:06;1.80;1.00
20650;DHT22;10484;48.736;9.332;2023-02-11T09:37:31;1.90;1.00
20650;DHT22;10484;48.736;9.332;2023-02-11T09:39:57;2.00;1.00
20650;DHT22;10484;48.736;9.332;2023-02-11T09:42:44;2.10;1.00
20650;DHT22;10484;48.736;9.332;2023-02-11T09:45:21;2.20;1.00
20650;DHT22;10484;48.736;9.332;2023-02-11T09:48:03;2.30;1.00
20650;DHT22;10484;48.736;9.332;2023-02-11T09:50:33;2.40;1.00
20650;DHT22;10484;48.736;9.332;2023-02-11T09:53:06;2.40;1.00
20650;DHT22;10484;48.736;9.332;2023-02-11T09:55:38;2.50;1.00
20650;DHT22;10484;48.736;9.332;2023-02-11T09:58:12;2.50;1.00
20650;DHT22;10484;48.736;9.332;2023-02-11T10:00:52;2.50;1.00
20650;DHT22;10484;48.736;9.332;2023-02-11T10:22:44;3.10;1.00
20650;DHT22;10484;48.736;9.332;2023-02-11T10:25:25;3.10;1.00
20650;DHT22;10484;48.736;9.332;2023-02-11T10:27:54;3.20;1.00
20650;DHT22;10484;48.736;9.332;2023-02-11T10:30:32;3.20;1.00
20650;DHT22;10484;48.736;9.332;2023-02-11T10:33:19;3.20;1.00
20650;DHT22;10484;48.736;9.332;2023-02-11T10:35:47;3.30;1.00
20650;DHT22;10484;48.736;9.332;2023-02-11T10:38:13;3.30;1.00
20650;DHT22;10484;48.736;9.332;2023-02-11T10:40:39;3.40;1.00
20650;DHT22;10484;48.736;9.332;2023-02-11T10:43:09;3.50;1.00
20650;DHT22;10484;48.736;9.332;2023-02-11T10:45:43;3.60;1.00
20650;DHT22;10484;48.736;9.332;2023-02-11T10:48:35;3.60;1.00
20650;DHT22;10484;48.736;9.332;2023-02-11T10:53:42;3.80;1.00
20650;DHT22;10484;48.736;9.332;2023-02-11T10:56:11;3.90;1.00
20650;DHT22;10484;48.736;9.332;2023-02-11T10:58:53;4.00;1.00
20650;DHT22;10484;48.736;9.332;2023-02-11T11:01:19;4.10;1.00
20650;DHT22;10484;48.736;9.332;2023-02-11T11:03:48;4.10;1.00
20650;DHT22;10484;48.736;9.332;2023-02-11T11:06:14;4.20;1.00
20650;DHT22;10484;48.736;9.332;2023-02-11T11:08:49;4.30;1.00
20650;DHT22;10484;48.736;9.332;2023-02-11T11:11:20;4.30;1.00
20650;DHT22;10484;48.736;9.332;2023-02-11T11:13:54;4.50;1.00
20650;DHT22;10484;48.736;9.332;2023-02-11T11:16:23;4.50;1.00
20650;DHT22;10484;48.736;9.332;2023-02-11T11:19:13;4.60;1.00
20650;DHT22;10484;48.736;9.332;2023-02-11T11:21:51;4.70;1.00
20650;DHT22;10484;48.736;9.332;2023-02-11T11:26:58;4.90;1.00
20650;DHT22;10484;48.736;9.332;2023-02-11T11:29:33;5.00;1.00
20650;DHT22;10484;48.736;9.332;2023-02-11T11:32:27;5.10;1.00
20650;DHT22;10484;48.736;9.332;2023-02-11T11:35:03;5.20;1.00
20650;DHT22;10484;48.736;9.332;2023-02-11T11:37:37;5.30;1.00
20650;DHT22;10484;48.736;9.332;2023-02-11T11:42:41;5.50;1.00
20650;DHT22;10484;48.736;9.332;2023-02-11T11:48:13;5.70;1.00
20650;DHT22;10484;48.736;9.332;2023-02-11T11:50:55;5.80;1.00
20650;DHT22;10484;48.736;9.332;2023-02-11T11:53:41;5.90;1.00
20650;DHT22;10484;48.736;9.332;2023-02-11T11:56:27;6.00;1.00
20650;DHT22;10484;48.736;9.332;2023-02-11T11:58:55;6.10;1.00
20650;DHT22;10484;48.736;9.332;2023-02-11T12:01:45;6.20;1.00
20650;DHT22;10484;48.736;9.332;2023-02-11T12:07:21;6.40;1.00
20650;DHT22;10484;48.736;9.332;2023-02-11T12:12:51;6.60;1.00
20650;DHT22;10484;48.736;9.332;2023-02-11T12:26:22;7.10;1.00
20650;DHT22;10484;48.736;9.332;2023-02-11T12:28:57;7.20;1.00
20650;DHT22;10484;48.736;9.332;2023-02-11T12:37:20;7.30;1.00
20650;DHT22;10484;48.736;9.332;2023-02-11T12:42:43;7.50;1.00
20650;DHT22;10484;48.736;9.332;2023-02-11T12:53:58;7.70;1.00
20650;DHT22;10484;48.736;9.332;2023-02-11T12:56:48;7.70;1.00
20650;DHT22;10484;48.736;9.332;2023-02-11T13:05:26;7.70;1.00
20650;DHT22;10484;48.736;9.332;2023-02-11T13:08:05;7.70;1.00
20650;DHT22;10484;48.736;9.332;2023-02-11T13:10:36;7.80;1.00
20650;DHT22;10484;48.736;9.332;2023-02-11T13:13:13;7.80;1.00
20650;DHT22;10484;48.736;9.332;2023-02-11T13:23:59;8.00;1.00
20650;DHT22;10484;48.736;9.332;2023-02-11T13:26:53;8.00;1.00
20650;DHT22;10484;48.736;9.332;2023-02-11T13:32:13;8.10;1.00
20650;DHT22;10484;48.736;9.332;2023-02-11T13:37:34;8.10;1.00
20650;DHT22;10484;48.736;9.332;2023-02-11T13:40:06;8.20;1.00
20650;DHT22;10484;48.736;9.332;2023-02-11T13:42:52;8.20;1.00
20650;DHT22;10484;48.736;9.332;2023-02-11T13:45:43;8.30;1.00
20650;DHT22;10484;48.736;9.332;2023-02-11T13:48:30;8.30;1.00
20650;DHT22;10484;48.736;9.332;2023-02-11T13:51:03;8.40;1.00
20650;DHT22;10484;48.736;9.332;2023-02-11T13:54:01;8.40;1.00
20650;DHT22;10484;48.736;9.332;2023-02-11T13:56:30;8.40;1.00
20650;DHT22;10484;48.736;9.332;2023-02-11T13:58:58;8.40;1.00
20650;DHT22;10484;48.736;9.332;2023-02-11T14:04:32;8.40;1.00
20650;DHT22;10484;48.736;9.332;2023-02-11T14:07:26;8.40;1.00
20650;DHT22;10484;48.736;9.332;2023-02-11T14:13:25;8.30;1.00
20650;DHT22;10484;48.736;9.332;2023-02-11T14:16:09;8.40;1.00
20650;DHT22;10484;48.736;9.332;2023-02-11T14:27:00;8.60;1.00
20650;DHT22;10484;48.736;9.332;2023-02-11T14:30:30;8.60;1.00
20650;DHT22;10484;48.736;9.332;2023-02-11T14:33:01;8.60;1.00
20650;DHT22;10484;48.736;9.332;2023-02-11T14:41:02;8.60;1.00
20650;DHT22;10484;48.736;9.332;2023-02-11T14:43:35;8.50;1.00
20650;DHT22;10484;48.736;9.332;2023-02-11T14:46:02;8.60;1.00
20650;DHT22;10484;48.736;9.332;2023-02-11T14:48:43;8.60;1.00
20650;DHT22;10484;48.736;9.332;2023-02-11T14:51:18;8.60;1.00
20650;DHT22;10484;48.736;9.332;2023-02-11T14:53:51;8.70;1.00
20650;DHT22;10484;48.736;9.332;2023-02-11T14:58:47;8.70;1.00
20650;DHT22;10484;48.736;9.332;2023-02-11T15:01:30;8.70;1.00
20650;DHT22;10484;48.736;9.332;2023-02-11T15:04:00;8.70;1.00
20650;DHT22;10484;48.736;9.332;2023-02-11T15:06:34;8.70;1.00
20650;DHT22;10484;48.736;9.332;2023-02-11T15:09:12;8.80;1.00
20650;DHT22;10484;48.736;9.332;2023-02-11T15:11:40;8.70;1.00
20650;DHT22;10484;48.736;9.332;2023-02-11T15:16:46;8.70;1.00
20650;DHT22;10484;48.736;9.332;2023-02-11T15:22:02;8.70;1.00
20650;DHT22;10484;48.736;9.332;2023-02-11T15:24:30;8.80;1.00
20650;DHT22;10484;48.736;9.332;2023-02-11T15:27:10;8.70;1.00
20650;DHT22;10484;48.736;9.332;2023-02-11T15:29:49;8.80;1.00
20650;DHT22;10484;48.736;9.332;2023-02-11T15:34:43;8.80;1.00
20650;DHT22;10484;48.736;9.332;2023-02-11T15:37:13;8.80;1.00
20650;DHT22;10484;48.736;9.332;2023-02-11T15:39:41;8.70;1.00
20650;DHT22;10484;48.736;9.332;2023-02-11T15:42:28;8.60;1.00
20650;DHT22;10484;48.736;9.332;2023-02-11T15:47:51;8.50;1.00
20650;DHT22;10484;48.736;9.332;2023-02-11T15:50:25;8.40;1.00
20650;DHT22;10484;48.736;9.332;2023-02-11T15:52:52;8.40;1.00
20650;DHT22;10484;48.736;9.332;2023-02-11T15:55:19;8.40;1.00
20650;DHT22;10484;48.736;9.332;2023-02-11T15:57:50;8.30;1.00
20650;DHT22;10484;48.736;9.332;2023-02-11T16:00:19;8.30;1.00
20650;DHT22;10484;48.736;9.332;2023-02-11T16:02:47;8.30;1.00
20650;DHT22;10484;48.736;9.332;2023-02-11T16:05:33;8.30;1.00
20650;DHT22;10484;48.736;9.332;2023-02-11T16:08:00;8.20;1.00
20650;DHT22;10484;48.736;9.332;2023-02-11T16:10:35;8.20;1.00
20650;DHT22;10484;48.736;9.332;2023-02-11T16:18:01;8.30;1.00
20650;DHT22;10484;48.736;9.332;2023-02-11T16:20:27;8.30;1.00
20650;DHT22;10484;48.736;9.332;2023-02-11T16:22:53;8.20;1.00
20650;DHT22;10484;48.736;9.332;2023-02-11T16:25:20;8.10;1.00
20650;DHT22;10484;48.736;9.332;2023-02-11T16:27:51;8.10;1.00
20650;DHT22;10484;48.736;9.332;2023-02-11T16:30:32;8.10;1.00
20650;DHT22;10484;48.736;9.332;2023-02-11T16:32:58;8.10;1.00
20650;DHT22;10484;48.736;9.332;2023-02-11T16:35:23;8.10;1.00
20650;DHT22;10484;48.736;9.332;2023-02-11T16:37:49;8.10;1.00
20650;DHT22;10484;48.736;9.332;2023-02-11T16:40:15;8.10;1.00
20650;DHT22;10484;48.736;9.332;2023-02-11T16:42:40;8.10;1.00
20650;DHT22;10484;48.736;9.332;2023-02-11T16:45:06;8.10;1.00
20650;DHT22;10484;48.736;9.332;2023-02-11T16:47:33;8.10;1.00
20650;DHT22;10484;48.736;9.332;2023-02-11T16:50:00;8.10;1.00
20650;DHT22;10484;48.736;9.332;2023-02-11T16:52:27;8.20;1.00
20650;DHT22;10484;48.736;9.332;2023-02-11T16:54:55;8.10;1.00
20650;DHT22;10484;48.736;9.332;2023-02-11T16:57:23;8.10;1.00
20650;DHT22;10484;48.736;9.332;2023-02-11T16:59:49;8.10;1.00
20650;DHT22;10484;48.736;9.332;2023-02-11T17:02:21;8.10;1.00
20650;DHT22;10484;48.736;9.332;2023-02-11T17:04:47;8.20;1.00
20650;DHT22;10484;48.736;9.332;2023-02-11T17:07:13;8.20;1.00
20650;DHT22;10484;48.736;9.332;2023-02-11T17:09:39;8.20;1.00
20650;DHT22;10484;48.736;9.332;2023-02-11T17:12:05;8.20;1.00
20650;DHT22;10484;48.736;9.332;2023-02-11T17:14:30;8.20;1.00
20650;DHT22;10484;48.736;9.332;2023-02-11T17:16:56;8.20;1.00
20650;DHT22;10484;48.736;9.332;2023-02-11T17:19:22;8.10;1.00
20650;DHT22;10484;48.736;9.332;2023-02-11T17:21:50;8.10;1.00
20650;DHT22;10484;48.736;9.332;2023-02-11T17:24:17;8.10;1.00
20650;DHT22;10484;48.736;9.332;2023-02-11T17:26:43;8.10;1.00
20650;DHT22;10484;48.736;9.332;2023-02-11T17:29:12;8.10;1.00
20650;DHT22;10484;48.736;9.332;2023-02-11T17:31:39;8.10;1.00
20650;DHT22;10484;48.736;9.332;2023-02-11T17:34:05;8.10;1.00
20650;DHT22;10484;48.736;9.332;2023-02-11T17:36:30;8.10;1.00
20650;DHT22;10484;48.736;9.332;2023-02-11T17:38:58;8.00;1.00
20650;DHT22;10484;48.736;9.332;2023-02-11T17:41:24;8.00;1.00
20650;DHT22;10484;48.736;9.332;2023-02-11T17:43:50;8.00;1.00
20650;DHT22;10484;48.736;9.332;2023-02-11T17:46:16;8.00;1.00
20650;DHT22;10484;48.736;9.332;2023-02-11T17:48:41;8.00;1.00
20650;DHT22;10484;48.736;9.332;2023-02-11T17:53:46;7.90;1.00
20650;DHT22;10484;48.736;9.332;2023-02-11T17:56:12;7.90;1.00
20650;DHT22;10484;48.736;9.332;2023-02-11T17:58:38;7.80;1.00
20650;DHT22;10484;48.736;9.332;2023-02-11T18:01:03;7.80;1.00
20650;DHT22;10484;48.736;9.332;2023-02-11T18:03:29;7.80;1.00
20650;DHT22;10484;48.736;9.332;2023-02-11T18:05:59;7.80;1.00
20650;DHT22;10484;48.736;9.332;2023-02-11T18:08:25;7.70;1.00
20650;DHT22;10484;48.736;9.332;2023-02-11T18:10:50;7.70;1.00
20650;DHT22;10484;48.736;9.332;2023-02-11T18:13:16;7.70;1.00
20650;DHT22;10484;48.736;9.332;2023-02-11T18:15:42;7.60;1.00
20650;DHT22;10484;48.736;9.332;2023-02-11T18:18:08;7.60;1.00
20650;DHT22;10484;48.736;9.332;2023-02-11T18:20:34;7.60;1.00
20650;DHT22;10484;48.736;9.332;2023-02-11T18:23:00;7.60;1.00
20650;DHT22;10484;48.736;9.332;2023-02-11T18:25:25;7.60;1.00
20650;DHT22;10484;48.736;9.332;2023-02-11T18:27:51;7.50;1.00
20650;DHT22;10484;48.736;9.332;2023-02-11T18:30:17;7.50;1.00
20650;DHT22;10484;48.736;9.332;2023-02-11T18:32:44;7.50;1.00
20650;DHT22;10484;48.736;9.332;2023-02-11T18:35:11;7.50;1.00
20650;DHT22;10484;48.736;9.332;2023-02-11T18:37:42;7.50;1.00
20650;DHT22;10484;48.736;9.332;2023-02-11T18:40:10;7.40;1.00
20650;DHT22;10484;48.736;9.332;2023-02-11T18:42:35;7.40;1.00
20650;DHT22;10484;48.736;9.332;2023-02-11T18:45:01;7.40;1.00
20650;DHT22;10484;48.736;9.332;2023-02-11T18:47:27;7.40;1.00
20650;DHT22;10484;48.736;9.332;2023-02-11T18:49:53;7.30;1.00
20650;DHT22;10484;48.736;9.332;2023-02-11T18:52:19;7.30;1.00
20650;DHT22;10484;48.736;9.332;2023-02-11T18:54:45;7.30;1.00